createdAt,value
2018-06-24T00:01:26.111Z,8.40
2018-06-24T00:03:55.472Z,4.60
2018-06-24T00:06:24.854Z,6.80
2018-06-24T00:08:54.276Z,5.90
2018-06-24T00:11:23.677Z,4.20
2018-06-24T00:13:53.078Z,5.57
2018-06-24T00:16:22.393Z,5.83
2018-06-24T00:18:51.769Z,2.87
2018-06-24T00:21:21.168Z,4.97
2018-06-24T00:23:50.486Z,3.10
2018-06-24T00:26:19.823Z,8.97
2018-06-24T00:28:49.168Z,6.13
2018-06-24T00:31:18.501Z,6.40
2018-06-24T00:33:47.261Z,5.50
2018-06-24T00:36:16.618Z,6.13
2018-06-24T00:38:46.021Z,7.80
2018-06-24T00:41:15.380Z,3.60
2018-06-24T00:43:45.087Z,3.30
2018-06-24T00:46:14.577Z,5.30
2018-06-24T00:48:43.948Z,3.07
2018-06-24T00:51:13.332Z,2.67
2018-06-24T00:53:42.656Z,7.97
2018-06-24T00:56:12.064Z,5.53
2018-06-24T00:58:41.419Z,3.93
2018-06-24T01:01:10.250Z,2.83
2018-06-24T01:03:39.619Z,2.83
2018-06-24T01:06:09.101Z,9.53
2018-06-24T01:08:38.485Z,6.87
2018-06-24T01:11:07.906Z,9.63
2018-06-24T01:13:37.304Z,8.90
2018-06-24T01:16:06.623Z,4.63
2018-06-24T01:18:35.393Z,5.10
2018-06-24T01:21:04.826Z,2.67
2018-06-24T01:23:34.222Z,2.43
2018-06-24T01:26:03.601Z,2.93
2018-06-24T01:28:32.986Z,2.93
2018-06-24T01:31:02.393Z,4.27
2018-06-24T01:33:31.765Z,3.27
2018-06-24T01:36:01.152Z,3.03
2018-06-24T01:38:30.869Z,2.83
2018-06-24T01:41:00.316Z,2.33
2018-06-24T01:43:29.743Z,3.20
2018-06-24T01:45:58.540Z,8.20
2018-06-24T01:48:27.334Z,2.60
2018-06-24T01:50:56.738Z,4.40
2018-06-24T01:53:26.090Z,2.43
2018-06-24T01:55:55.470Z,2.70
2018-06-24T01:58:24.828Z,2.73
2018-06-24T02:00:54.191Z,2.67
2018-06-24T02:03:23.510Z,3.23
2018-06-24T02:05:52.930Z,3.20
2018-06-24T02:08:22.274Z,2.87
2018-06-24T02:10:51.686Z,2.73
2018-06-24T02:13:21.050Z,9.90
2018-06-24T02:15:50.424Z,2.30
2018-06-24T02:18:19.763Z,5.30
2018-06-24T02:20:49.131Z,5.10
2018-06-24T02:23:18.468Z,3.50
2018-06-24T02:25:47.840Z,2.30
2018-06-24T02:28:16.686Z,3.00
2018-06-24T02:30:46.025Z,2.50
2018-06-24T02:33:14.810Z,6.53
2018-06-24T02:35:44.174Z,3.47
2018-06-24T02:38:13.548Z,3.00
2018-06-24T02:40:42.911Z,2.43
2018-06-24T02:43:12.339Z,2.63
2018-06-24T02:45:41.717Z,3.00
2018-06-24T02:48:11.061Z,2.90
2018-06-24T02:50:40.429Z,7.87
2018-06-24T02:53:16.029Z,2.60
2018-06-24T02:55:45.367Z,3.05
2018-06-24T02:58:14.916Z,2.50
2018-06-24T03:00:44.302Z,9.27
2018-06-24T03:03:13.688Z,2.70
2018-06-24T03:05:43.036Z,3.77
2018-06-24T03:08:12.425Z,4.67
2018-06-24T03:10:41.868Z,3.20
2018-06-24T03:13:11.226Z,3.07
2018-06-24T03:15:40.700Z,2.73
2018-06-24T03:18:10.153Z,2.80
2018-06-24T03:20:39.577Z,3.03
2018-06-24T03:23:08.970Z,3.13
2018-06-24T03:25:38.360Z,3.23
2018-06-24T03:28:07.742Z,2.60
2018-06-24T03:30:37.075Z,3.33
2018-06-24T03:33:06.688Z,3.33
2018-06-24T03:35:36.118Z,3.27
2018-06-24T03:38:05.036Z,3.20
2018-06-24T03:40:34.469Z,11.23
2018-06-24T03:43:03.903Z,9.27
2018-06-24T03:45:33.259Z,3.17
2018-06-24T03:48:02.657Z,2.70
2018-06-24T03:50:32.010Z,3.80
2018-06-24T03:53:01.345Z,2.40
2018-06-24T03:55:30.727Z,4.20
2018-06-24T03:57:59.557Z,3.17
2018-06-24T04:00:28.940Z,3.90
2018-06-24T04:02:58.324Z,3.90
2018-06-24T04:05:27.144Z,3.43
2018-06-24T04:07:56.430Z,2.43
2018-06-24T04:10:25.756Z,2.93
2018-06-24T04:12:55.060Z,3.60
2018-06-24T04:15:24.408Z,4.07
2018-06-24T04:17:53.216Z,4.50
2018-06-24T04:20:22.583Z,7.60
2018-06-24T04:22:51.937Z,3.73
2018-06-24T04:25:21.347Z,3.10
2018-06-24T04:27:50.670Z,3.20
2018-06-24T04:30:19.968Z,2.73
2018-06-24T04:32:49.358Z,2.83
2018-06-24T04:35:18.714Z,6.40
2018-06-24T04:37:47.524Z,4.23
2018-06-24T04:40:16.852Z,2.60
2018-06-24T04:42:46.132Z,3.10
2018-06-24T04:45:15.542Z,3.20
2018-06-24T04:47:44.899Z,2.97
2018-06-24T04:50:14.335Z,3.37
2018-06-24T04:52:43.708Z,3.50
2018-06-24T04:55:12.555Z,3.10
2018-06-24T04:57:41.918Z,6.13
2018-06-24T05:00:11.403Z,13.17
2018-06-24T05:02:40.817Z,2.60
2018-06-24T05:05:09.761Z,2.73
2018-06-24T05:07:38.623Z,9.03
2018-06-24T05:10:08.007Z,26.93
2018-06-24T05:12:37.348Z,22.93
2018-06-24T05:15:06.669Z,24.47
2018-06-24T05:17:36.064Z,28.87
2018-06-24T05:20:05.490Z,14.20
2018-06-24T05:22:34.286Z,23.53
2018-06-24T05:25:03.089Z,27.30
2018-06-24T05:27:32.605Z,35.90
2018-06-24T05:30:02.030Z,30.20
2018-06-24T05:32:31.428Z,24.30
2018-06-24T05:35:00.818Z,29.57
2018-06-24T05:37:30.185Z,21.20
2018-06-24T05:39:59.002Z,22.43
2018-06-24T05:42:28.346Z,20.13
2018-06-24T05:44:57.726Z,22.00
2018-06-24T05:47:27.108Z,30.80
2018-06-24T05:49:56.594Z,26.87
2018-06-24T05:52:25.386Z,24.53
2018-06-24T05:54:54.761Z,29.30
2018-06-24T05:57:24.126Z,33.83
2018-06-24T05:59:53.480Z,26.20
2018-06-24T06:02:22.412Z,27.90
2018-06-24T06:04:51.778Z,32.27
2018-06-24T06:07:20.607Z,26.00
2018-06-24T06:09:50.003Z,29.73
2018-06-24T06:12:19.319Z,28.40
2018-06-24T06:14:48.678Z,28.10
2018-06-24T06:17:18.060Z,33.43
2018-06-24T06:19:46.853Z,34.00
2018-06-24T06:22:15.679Z,29.43
2018-06-24T06:24:45.175Z,27.10
2018-06-24T06:27:14.619Z,28.97
2018-06-24T06:29:44.038Z,30.37
2018-06-24T06:32:13.760Z,26.77
2018-06-24T06:34:42.584Z,31.13
2018-06-24T06:37:11.963Z,35.17
2018-06-24T06:39:41.409Z,37.67
2018-06-24T06:42:10.775Z,31.97
2018-06-24T06:44:40.314Z,34.77
2018-06-24T06:47:09.700Z,30.03
2018-06-24T06:49:39.132Z,29.83
2018-06-24T06:52:08.530Z,35.10
2018-06-24T06:54:38.271Z,34.87
2018-06-24T06:57:08.798Z,27.60
2018-06-24T06:59:38.513Z,26.20
2018-06-24T07:02:07.416Z,30.27
2018-06-24T07:04:36.226Z,33.50
2018-06-24T07:07:05.703Z,32.03
2018-06-24T07:09:34.480Z,33.70
2018-06-24T07:12:03.892Z,32.33
2018-06-24T07:14:32.777Z,33.43
2018-06-24T07:17:02.141Z,29.33
2018-06-24T07:19:31.844Z,21.90
2018-06-24T07:22:01.305Z,21.87
2018-06-24T07:24:30.721Z,25.33
2018-06-24T07:27:00.232Z,27.90
2018-06-24T07:29:29.716Z,29.53
2018-06-24T07:31:59.090Z,22.63
2018-06-24T07:34:28.472Z,26.60
2018-06-24T07:36:57.825Z,27.43
2018-06-24T07:39:26.620Z,23.27
2018-06-24T07:41:56.024Z,31.33
2018-06-24T07:44:25.366Z,19.03
2018-06-24T07:46:54.906Z,16.80
2018-06-24T07:49:24.285Z,21.33
2018-06-24T07:51:53.673Z,19.17
2018-06-24T07:54:23.004Z,49.23
2018-06-24T07:56:52.394Z,44.80
2018-06-24T07:59:21.798Z,10.10
2018-06-24T08:01:51.226Z,15.63
2018-06-24T08:04:20.650Z,16.47
2018-06-24T08:06:49.992Z,22.87
2018-06-24T08:09:19.375Z,16.30
2018-06-24T08:11:48.744Z,21.00
2018-06-24T08:14:17.531Z,25.50
2018-06-24T08:16:46.327Z,21.20
2018-06-24T08:19:15.678Z,25.93
2018-06-24T08:21:45.100Z,20.50
2018-06-24T08:24:14.507Z,19.00
2018-06-24T08:26:43.909Z,24.63
2018-06-24T08:29:13.314Z,18.30
2018-06-24T08:31:42.774Z,24.00
2018-06-24T08:34:12.180Z,16.00
2018-06-24T08:36:41.595Z,19.53
2018-06-24T08:39:12.133Z,12.23
2018-06-24T08:41:41.475Z,9.37
2018-06-24T08:44:10.803Z,13.43
2018-06-24T08:46:40.196Z,13.87
2018-06-24T08:49:09.665Z,15.67
2018-06-24T08:51:38.447Z,9.80
2018-06-24T08:54:07.994Z,6.30
2018-06-24T08:56:37.367Z,7.03
2018-06-24T08:59:06.888Z,9.33
2018-06-24T09:01:36.465Z,18.13
2018-06-24T09:04:05.840Z,14.80
2018-06-24T09:06:35.214Z,51.80
2018-06-24T09:09:06.644Z,41.93
2018-06-24T09:11:36.149Z,80.13
2018-06-24T09:14:05.763Z,19.07
2018-06-24T09:16:35.221Z,15.73
2018-06-24T09:19:04.661Z,10.00
2018-06-24T09:21:34.021Z,10.03
2018-06-24T09:24:03.446Z,13.43
2018-06-24T09:26:33.479Z,11.67
2018-06-24T09:29:02.302Z,12.87
2018-06-24T09:31:31.716Z,22.97
2018-06-24T09:34:01.030Z,15.93
2018-06-24T09:36:30.520Z,7.77
2018-06-24T09:38:59.877Z,7.10
2018-06-24T09:41:28.721Z,16.60
2018-06-24T09:43:58.073Z,6.40
2018-06-24T09:46:27.451Z,9.13
2018-06-24T09:48:56.757Z,19.93
2018-06-24T09:51:26.133Z,7.17
2018-06-24T09:53:55.481Z,18.97
2018-06-24T09:56:24.806Z,10.83
2018-06-24T09:58:54.154Z,8.17
2018-06-24T10:01:23.579Z,4.23
2018-06-24T10:03:53.026Z,14.53
2018-06-24T10:06:22.467Z,14.00
2018-06-24T10:08:51.441Z,4.73
2018-06-24T10:11:21.053Z,5.60
2018-06-24T10:13:49.971Z,6.00
2018-06-24T10:16:19.447Z,4.10
2018-06-24T10:18:48.770Z,6.00
2018-06-24T10:21:17.608Z,6.93
2018-06-24T10:23:47.028Z,5.13
2018-06-24T10:26:16.401Z,11.90
2018-06-24T10:28:45.750Z,6.83
2018-06-24T10:31:15.156Z,3.60
2018-06-24T10:33:55.979Z,6.10
2018-06-24T10:36:31.859Z,5.17
2018-06-24T10:39:01.277Z,12.73
2018-06-24T10:41:30.629Z,5.03
2018-06-24T10:44:00.085Z,7.87
2018-06-24T10:46:29.492Z,16.70
2018-06-24T10:48:58.825Z,9.73
2018-06-24T10:51:28.206Z,12.90
2018-06-24T10:53:57.598Z,8.63
2018-06-24T10:56:26.924Z,4.23
2018-06-24T10:58:56.287Z,11.07
2018-06-24T11:01:25.618Z,5.93
2018-06-24T11:03:55.037Z,5.60
2018-06-24T11:06:24.487Z,16.23
2018-06-24T11:08:53.889Z,10.03
2018-06-24T11:11:23.194Z,6.17
2018-06-24T11:13:52.622Z,4.70
2018-06-24T11:16:22.060Z,7.23
2018-06-24T11:18:51.473Z,3.63
2018-06-24T11:21:20.925Z,3.77
2018-06-24T11:23:50.339Z,8.43
2018-06-24T11:26:19.770Z,5.80
2018-06-24T11:28:49.384Z,6.23
2018-06-24T11:31:18.824Z,7.23
2018-06-24T11:33:48.821Z,4.83
2018-06-24T11:36:18.298Z,6.90
2018-06-24T11:38:47.690Z,8.80
2018-06-24T11:41:17.173Z,4.43
2018-06-24T11:43:45.988Z,7.60
2018-06-24T11:46:15.376Z,7.90
2018-06-24T11:48:44.881Z,5.40
2018-06-24T11:51:14.528Z,17.90
2018-06-24T11:53:43.979Z,8.07
2018-06-24T11:56:12.806Z,14.33
2018-06-24T11:58:42.218Z,24.90
2018-06-24T12:01:11.586Z,17.27
2018-06-24T12:03:41.017Z,28.90
2018-06-24T12:06:10.369Z,13.83
2018-06-24T12:08:39.823Z,14.53
2018-06-24T12:11:09.134Z,4.97
2018-06-24T12:13:38.611Z,4.30
2018-06-24T12:16:08.048Z,4.70
2018-06-24T12:18:37.383Z,7.53
2018-06-24T12:21:06.276Z,30.63
2018-06-24T12:23:35.650Z,5.57
2018-06-24T12:26:05.141Z,5.47
2018-06-24T12:28:34.519Z,6.33
2018-06-24T12:31:10.526Z,4.97
2018-06-24T12:33:39.345Z,5.87
2018-06-24T12:36:08.207Z,7.93
2018-06-24T12:38:37.615Z,4.97
2018-06-24T12:41:06.934Z,8.90
2018-06-24T12:43:36.313Z,7.70
2018-06-24T12:46:05.800Z,13.13
2018-06-24T12:48:35.258Z,7.07
2018-06-24T12:51:04.691Z,15.37
2018-06-24T12:53:34.032Z,17.13
2018-06-24T12:56:03.433Z,17.50
2018-06-24T12:58:32.843Z,17.60
2018-06-24T13:01:02.289Z,12.13
2018-06-24T13:03:31.727Z,13.03
2018-06-24T13:06:01.153Z,7.77
2018-06-24T13:08:30.532Z,8.60
2018-06-24T13:11:00.196Z,12.67
2018-06-24T13:13:29.581Z,6.53
2018-06-24T13:15:59.013Z,7.87
2018-06-24T13:18:28.362Z,7.13
2018-06-24T13:20:57.852Z,15.70
2018-06-24T13:23:27.283Z,18.53
2018-06-24T13:25:57.022Z,11.43
2018-06-24T13:28:26.401Z,8.70
2018-06-24T13:30:56.103Z,14.93
2018-06-24T13:33:25.779Z,5.20
2018-06-24T13:35:55.177Z,16.33
2018-06-24T13:38:24.574Z,17.07
2018-06-24T13:40:53.943Z,24.33
2018-06-24T13:43:23.494Z,27.13
2018-06-24T13:45:52.979Z,17.73
2018-06-24T13:48:22.426Z,14.10
2018-06-24T13:50:52.400Z,19.70
2018-06-24T13:53:21.770Z,13.77
2018-06-24T13:55:51.241Z,10.30
2018-06-24T13:58:20.673Z,17.43
2018-06-24T14:00:50.147Z,8.93
2018-06-24T14:03:19.555Z,8.30
2018-06-24T14:05:48.595Z,12.40
2018-06-24T14:08:17.923Z,7.23
2018-06-24T14:10:49.211Z,15.07
2018-06-24T14:13:19.432Z,9.57
2018-06-24T14:15:50.231Z,7.37
2018-06-24T14:18:19.671Z,12.87
2018-06-24T14:20:50.464Z,10.20
2018-06-24T14:23:19.876Z,7.10
2018-06-24T14:25:49.378Z,11.17
2018-06-24T14:28:19.464Z,10.23
2018-06-24T14:30:50.160Z,10.27
2018-06-24T14:33:21.932Z,10.23
2018-06-24T14:35:50.753Z,4.90
2018-06-24T14:38:22.513Z,5.80
2018-06-24T14:40:51.946Z,20.00
2018-06-24T14:43:21.362Z,6.60
2018-06-24T14:45:50.820Z,10.40
2018-06-24T14:48:21.336Z,14.10
2018-06-24T14:50:50.923Z,16.70
2018-06-24T14:53:20.324Z,14.40
2018-06-24T14:55:49.776Z,12.10
2018-06-24T14:58:19.196Z,17.30
2018-06-24T15:00:49.761Z,10.97
2018-06-24T15:03:19.211Z,12.20
2018-06-24T15:05:54.091Z,15.83
2018-06-24T15:08:23.503Z,19.97
2018-06-24T15:10:52.989Z,14.67
2018-06-24T15:13:22.393Z,19.90
2018-06-24T15:15:52.591Z,18.00
2018-06-24T15:18:21.957Z,11.10
2018-06-24T15:20:51.300Z,19.73
2018-06-24T15:23:20.716Z,14.03
2018-06-24T15:25:50.107Z,25.90
2018-06-24T15:28:22.477Z,41.77
2018-06-24T15:30:51.832Z,130.80
2018-06-24T15:33:21.622Z,34.83
2018-06-24T15:35:51.034Z,15.00
2018-06-24T15:38:21.526Z,19.27
2018-06-24T15:40:50.472Z,17.40
2018-06-24T15:43:21.407Z,25.37
2018-06-24T15:45:50.907Z,14.00
2018-06-24T15:48:20.306Z,15.73
2018-06-24T15:53:52.888Z,15.60
2018-06-24T15:56:21.707Z,11.50
2018-06-24T15:58:51.227Z,16.50
2018-06-24T16:01:20.664Z,10.33
2018-06-24T16:03:50.277Z,14.63
2018-06-24T16:06:19.625Z,13.67
2018-06-24T16:08:49.784Z,17.23
2018-06-24T16:11:19.920Z,15.50
2018-06-24T16:13:49.312Z,11.00
2018-06-24T16:16:18.702Z,12.73
2018-06-24T16:18:48.070Z,22.17
2018-06-24T16:21:18.026Z,7.77
2018-06-24T16:23:47.201Z,9.97
2018-06-24T16:26:16.665Z,19.17
2018-06-24T16:28:46.064Z,19.20
2018-06-24T16:31:15.433Z,12.30
2018-06-24T16:33:44.819Z,11.33
2018-06-24T16:36:14.207Z,14.50
2018-06-24T16:38:43.604Z,15.20
2018-06-24T16:41:13.102Z,10.97
2018-06-24T16:43:42.750Z,20.67
2018-06-24T16:46:12.221Z,17.97
2018-06-24T16:48:41.636Z,14.50
2018-06-24T16:51:11.236Z,12.80
2018-06-24T16:53:40.635Z,17.03
2018-06-24T16:56:09.993Z,14.90
2018-06-24T16:58:40.268Z,16.13
2018-06-24T17:01:08.853Z,8.87
2018-06-24T17:03:38.217Z,11.57
2018-06-24T17:06:07.590Z,16.63
2018-06-24T17:08:36.971Z,13.83
2018-06-24T17:11:06.352Z,15.33
2018-06-24T17:13:48.945Z,13.00
2018-06-24T17:16:23.236Z,17.67
2018-06-24T17:18:52.670Z,13.20
2018-06-24T17:21:22.007Z,18.70
2018-06-24T17:23:51.358Z,8.37
2018-06-24T17:26:20.782Z,4.70
2018-06-24T17:28:50.201Z,7.30
2018-06-24T17:31:19.619Z,12.80
2018-06-24T17:33:49.106Z,10.00
2018-06-24T17:36:18.522Z,12.40
2018-06-24T17:38:47.839Z,4.00
2018-06-24T17:41:17.305Z,5.93
2018-06-24T17:43:46.713Z,10.83
2018-06-24T17:46:16.077Z,8.83
2018-06-24T17:48:45.550Z,9.00
2018-06-24T17:51:14.927Z,15.70
2018-06-24T17:53:44.306Z,10.93
2018-06-24T17:56:13.750Z,8.27
2018-06-24T17:58:43.726Z,8.00
2018-06-24T18:01:13.154Z,12.60
2018-06-24T18:03:42.611Z,11.40
2018-06-24T18:06:12.036Z,16.43
2018-06-24T18:08:41.462Z,6.10
2018-06-24T18:11:11.399Z,9.13
2018-06-24T18:13:40.893Z,10.30
2018-06-24T18:16:10.537Z,13.47
2018-06-24T18:18:40.188Z,9.23
2018-06-24T18:21:10.723Z,5.70
2018-06-24T18:23:40.862Z,11.37
2018-06-24T18:26:10.847Z,10.00
2018-06-24T18:28:40.556Z,19.80
2018-06-24T18:31:10.249Z,10.53
2018-06-24T18:33:39.848Z,6.03
2018-06-24T18:36:09.349Z,8.00
2018-06-24T18:38:38.777Z,10.03
2018-06-24T18:41:08.438Z,23.20
2018-06-24T18:43:37.882Z,26.20
2018-06-24T18:46:07.319Z,35.80
2018-06-24T18:48:36.696Z,12.53
2018-06-24T18:51:09.256Z,30.53
2018-06-24T18:53:38.641Z,18.13
2018-06-24T18:56:08.208Z,15.47
2018-06-24T18:58:37.680Z,18.20
2018-06-24T19:01:07.099Z,8.83
2018-06-24T19:03:36.492Z,14.67
2018-06-24T19:06:06.199Z,10.60
2018-06-24T19:08:35.585Z,11.30
2018-06-24T19:11:05.174Z,30.93
2018-06-24T19:13:34.570Z,14.73
2018-06-24T19:16:04.037Z,17.53
2018-06-24T19:18:33.458Z,14.20
2018-06-24T19:21:02.912Z,15.30
2018-06-24T19:23:32.286Z,14.20
2018-06-24T19:26:01.810Z,17.03
2018-06-24T19:28:31.621Z,16.27
2018-06-24T19:31:01.212Z,15.33
2018-06-24T19:33:30.650Z,14.33
2018-06-24T19:36:00.298Z,23.03
2018-06-24T19:38:30.087Z,23.33
2018-06-24T19:40:59.901Z,12.67
2018-06-24T19:43:29.512Z,16.60
2018-06-24T19:45:59.158Z,18.60
2018-06-24T19:48:28.705Z,18.17
2018-06-24T19:50:58.343Z,19.50
2018-06-24T19:53:27.992Z,21.33
2018-06-24T19:55:57.490Z,13.33
2018-06-24T19:58:26.985Z,15.23
2018-06-24T20:00:56.530Z,16.27
2018-06-24T20:03:26.025Z,21.37
2018-06-24T20:05:55.691Z,10.97
2018-06-24T20:08:25.165Z,20.83
2018-06-24T20:10:54.730Z,16.10
2018-06-24T20:13:24.292Z,16.40
2018-06-24T20:15:55.274Z,10.97
2018-06-24T20:18:24.665Z,19.50
2018-06-24T20:20:54.248Z,16.50
2018-06-24T20:23:23.686Z,21.33
2018-06-24T20:25:53.138Z,24.70
2018-06-24T20:28:22.663Z,12.30
2018-06-24T20:30:52.151Z,18.03
2018-06-24T20:33:21.615Z,14.63
2018-06-24T20:35:51.145Z,14.43
2018-06-24T20:38:20.737Z,12.43
2018-06-24T20:40:50.250Z,11.80
2018-06-24T20:43:21.953Z,11.33
2018-06-24T20:45:51.715Z,14.20
2018-06-24T20:48:21.761Z,15.10
2018-06-24T20:50:51.197Z,16.33
2018-06-24T20:53:22.649Z,19.93
2018-06-24T20:55:52.336Z,17.77
2018-06-24T20:58:23.070Z,18.30
2018-06-24T21:00:52.459Z,23.77
2018-06-24T21:03:21.980Z,38.70
2018-06-24T21:05:51.746Z,52.20
2018-06-24T21:08:21.196Z,32.90
2018-06-24T21:10:50.738Z,20.77
2018-06-24T21:13:20.196Z,14.53
2018-06-24T21:15:49.539Z,17.57
2018-06-24T21:18:18.355Z,11.33
2018-06-24T21:20:47.903Z,17.47
2018-06-24T21:23:17.436Z,17.67
2018-06-24T21:25:46.301Z,12.93
2018-06-24T21:28:15.969Z,14.53
2018-06-24T21:30:45.429Z,18.53
2018-06-24T21:33:14.996Z,20.73
2018-06-24T21:35:44.455Z,15.63
2018-06-24T21:38:13.941Z,12.60
2018-06-24T21:40:43.427Z,13.37
2018-06-24T21:43:12.854Z,16.00
2018-06-24T21:45:41.725Z,13.93
2018-06-24T21:48:11.122Z,17.53
2018-06-24T21:50:40.532Z,20.93
2018-06-24T21:53:09.908Z,19.12
2018-06-24T21:55:39.279Z,17.40
2018-06-24T21:58:08.742Z,14.00
2018-06-24T22:00:38.320Z,12.60
2018-06-24T22:03:07.730Z,16.80
2018-06-24T22:05:37.119Z,16.17
2018-06-24T22:08:06.798Z,24.67
2018-06-24T22:10:36.230Z,16.60
2018-06-24T22:13:05.748Z,15.20
2018-06-24T22:15:35.122Z,20.80
2018-06-24T22:18:04.553Z,15.20
2018-06-24T22:20:34.026Z,13.70
2018-06-24T22:23:03.366Z,12.43
2018-06-24T22:25:33.651Z,21.27
2018-06-24T22:28:03.001Z,18.30
2018-06-24T22:30:32.328Z,20.80
2018-06-24T22:33:01.186Z,20.15
2018-06-24T22:35:30.694Z,16.03
2018-06-24T22:38:00.079Z,16.03
2018-06-24T22:40:29.476Z,16.30
2018-06-24T22:42:58.816Z,11.30
2018-06-24T22:45:28.205Z,13.10
2018-06-24T22:47:57.548Z,17.03
2018-06-24T22:50:26.897Z,17.57
2018-06-24T22:52:56.276Z,13.10
2018-06-24T22:55:25.700Z,9.00
2018-06-24T22:57:55.149Z,11.40
2018-06-24T23:00:23.985Z,13.80
2018-06-24T23:02:53.356Z,22.63
2018-06-24T23:05:22.699Z,28.00
2018-06-24T23:07:52.046Z,21.53
2018-06-24T23:10:21.421Z,10.70
2018-06-24T23:12:50.779Z,25.43
2018-06-24T23:15:20.138Z,21.63
2018-06-24T23:17:48.994Z,25.03
2018-06-24T23:20:18.331Z,31.17
2018-06-24T23:22:47.137Z,26.03
2018-06-24T23:25:16.489Z,25.03
2018-06-24T23:27:45.829Z,28.00
2018-06-24T23:30:15.176Z,20.07
2018-06-24T23:32:44.547Z,22.43
2018-06-24T23:35:13.896Z,22.47
2018-06-24T23:37:43.233Z,20.83
2018-06-24T23:40:12.589Z,18.00
2018-06-24T23:42:41.938Z,20.07
2018-06-24T23:45:11.354Z,21.20
2018-06-24T23:47:40.741Z,25.87
2018-06-24T23:50:10.107Z,11.73
2018-06-24T23:52:39.465Z,16.30
2018-06-24T23:55:08.849Z,18.70
2018-06-24T23:57:38.170Z,17.13
